createdAt,value
2022-11-12T00:00:47.539Z,57.21
2022-11-12T00:03:15.424Z,57.26
2022-11-12T00:05:43.258Z,56.88
2022-11-12T00:08:11.171Z,56.56
2022-11-12T00:10:39.109Z,56.43
2022-11-12T00:13:08.407Z,56.35
2022-11-12T00:15:36.284Z,56.63
2022-11-12T00:18:04.272Z,56.16
2022-11-12T00:20:32.127Z,56.07
2022-11-12T00:23:00.111Z,56.38
2022-11-12T00:25:28.395Z,56.23
2022-11-12T00:27:59.576Z,55.78
2022-11-12T00:30:28.877Z,56.28
2022-11-12T00:32:56.744Z,55.96
2022-11-12T00:35:24.622Z,56.21
2022-11-12T00:37:56.726Z,56.12
2022-11-12T00:40:25.222Z,56.42
2022-11-12T00:42:54.841Z,56.36
2022-11-12T00:45:22.804Z,56.49
2022-11-12T00:47:54.918Z,56.79
2022-11-12T00:50:22.800Z,56.58
2022-11-12T00:52:52.876Z,56.59
2022-11-12T00:55:20.800Z,56.52
2022-11-12T00:57:48.636Z,56.60
2022-11-12T01:00:17.194Z,56.58
2022-11-12T01:02:50.448Z,56.81
2022-11-12T01:05:20.809Z,56.91
2022-11-12T01:07:54.747Z,56.51
2022-11-12T01:10:23.762Z,56.66
2022-11-12T01:12:51.630Z,57.09
2022-11-12T01:15:19.632Z,57.01
2022-11-12T01:17:47.527Z,56.95
2022-11-12T01:20:15.506Z,56.96
2022-11-12T01:22:44.773Z,57.46
2022-11-12T01:25:12.598Z,57.15
2022-11-12T01:27:40.474Z,57.31
2022-11-12T01:30:09.463Z,57.51
2022-11-12T01:32:37.899Z,57.65
2022-11-12T01:35:06.749Z,57.49
2022-11-12T01:37:34.611Z,57.47
2022-11-12T01:40:03.962Z,57.70
2022-11-12T01:42:32.264Z,57.69
2022-11-12T01:45:00.169Z,57.62
2022-11-12T01:47:28.877Z,57.56
2022-11-12T01:49:57.993Z,57.37
2022-11-12T01:52:28.626Z,57.81
2022-11-12T01:54:57.534Z,57.29
2022-11-12T01:57:33.459Z,57.27
2022-11-12T02:00:06.196Z,57.33
2022-11-12T02:02:34.202Z,57.72
2022-11-12T02:05:02.144Z,57.55
2022-11-12T02:07:30.048Z,57.46
2022-11-12T02:09:57.898Z,57.81
2022-11-12T02:12:44.953Z,57.63
2022-11-12T02:15:12.848Z,57.96
2022-11-12T02:17:40.722Z,57.99
2022-11-12T02:20:10.907Z,58.16
2022-11-12T02:22:40.143Z,58.01
2022-11-12T02:25:09.779Z,58.13
2022-11-12T02:27:37.692Z,58.60
2022-11-12T02:30:06.487Z,58.56
2022-11-12T02:32:34.645Z,59.17
2022-11-12T02:35:02.547Z,58.98
2022-11-12T02:37:30.448Z,59.29
2022-11-12T02:39:59.797Z,59.71
2022-11-12T02:42:27.662Z,59.66
2022-11-12T02:44:55.496Z,59.92
2022-11-12T02:47:23.356Z,60.37
2022-11-12T02:49:51.212Z,60.21
2022-11-12T02:52:19.139Z,60.51
2022-11-12T02:54:47.020Z,60.35
2022-11-12T02:57:16.300Z,60.70
2022-11-12T02:59:44.188Z,60.82
2022-11-12T03:02:12.034Z,61.00
2022-11-12T03:04:39.911Z,60.94
2022-11-12T03:07:07.840Z,60.64
2022-11-12T03:09:35.766Z,60.67
2022-11-12T03:12:03.736Z,61.01
2022-11-12T03:14:33.022Z,61.08
2022-11-12T03:17:00.934Z,60.98
2022-11-12T03:19:28.777Z,60.93
2022-11-12T03:21:56.661Z,60.94
2022-11-12T03:24:24.580Z,61.22
2022-11-12T03:26:52.605Z,61.34
2022-11-12T03:29:20.473Z,61.18
2022-11-12T03:31:49.728Z,61.28
2022-11-12T03:34:17.611Z,61.13
2022-11-12T03:36:45.498Z,61.15
2022-11-12T03:39:13.362Z,61.10
2022-11-12T03:41:41.237Z,61.06
2022-11-12T03:44:09.121Z,61.20
2022-11-12T03:46:41.532Z,61.18
2022-11-12T03:49:13.410Z,61.08
2022-11-12T03:51:41.284Z,61.08
2022-11-12T03:54:09.159Z,61.22
2022-11-12T03:56:37.321Z,61.41
2022-11-12T03:59:05.521Z,61.26
2022-11-12T04:01:33.681Z,60.99
2022-11-12T04:04:01.616Z,60.89
2022-11-12T04:06:48.226Z,60.93
2022-11-12T04:09:16.120Z,60.79
2022-11-12T04:11:44.305Z,60.90
2022-11-12T04:14:11.214Z,60.93
2022-11-12T04:16:56.630Z,60.92
2022-11-12T04:19:41.977Z,60.99
2022-11-12T04:22:11.933Z,60.74
2022-11-12T04:24:58.216Z,60.74
2022-11-12T04:27:27.386Z,60.94
2022-11-12T04:30:12.500Z,60.58
2022-11-12T04:32:41.393Z,60.84
2022-11-12T04:35:09.887Z,61.05
2022-11-12T04:37:48.548Z,60.70
2022-11-12T04:40:34.883Z,60.62
2022-11-12T04:43:20.431Z,60.78
2022-11-12T04:45:49.434Z,60.83
2022-11-12T04:48:17.413Z,60.96
2022-11-12T04:50:45.894Z,60.63
2022-11-12T04:53:15.246Z,60.61
2022-11-12T04:55:43.126Z,60.47
2022-11-12T04:58:11.009Z,60.73
2022-11-12T05:00:38.899Z,60.44
2022-11-12T05:03:06.851Z,60.64
2022-11-12T05:05:34.759Z,60.55
2022-11-12T05:08:02.632Z,60.17
2022-11-12T05:10:32.006Z,60.35
2022-11-12T05:12:59.906Z,59.98
2022-11-12T05:15:27.820Z,60.22
2022-11-12T05:17:55.710Z,59.68
2022-11-12T05:20:23.638Z,60.03
2022-11-12T05:23:05.729Z,59.72
2022-11-12T05:25:36.352Z,59.90
2022-11-12T05:28:06.711Z,59.61
2022-11-12T05:30:35.230Z,59.66
2022-11-12T05:33:03.162Z,59.58
2022-11-12T05:35:31.093Z,59.58
2022-11-12T05:37:58.938Z,59.57
2022-11-12T05:40:26.823Z,59.90
2022-11-12T05:42:56.199Z,59.52
2022-11-12T05:45:24.074Z,59.37
2022-11-12T05:47:51.986Z,59.69
2022-11-12T05:50:19.851Z,59.47
2022-11-12T05:52:47.764Z,59.41
2022-11-12T05:55:15.910Z,59.46
2022-11-12T05:57:43.822Z,59.68
2022-11-12T06:00:14.151Z,59.67
2022-11-12T06:02:43.134Z,59.62
2022-11-12T06:05:11.173Z,59.76
2022-11-12T06:07:39.034Z,59.72
2022-11-12T06:10:07.754Z,59.55
2022-11-12T06:12:35.607Z,59.42
2022-11-12T06:15:03.535Z,59.93
2022-11-12T06:17:32.773Z,59.95
2022-11-12T06:20:00.723Z,59.83
2022-11-12T06:22:28.671Z,59.82
2022-11-12T06:24:56.547Z,59.97
2022-11-12T06:27:24.708Z,59.77
2022-11-12T06:29:52.647Z,59.82
2022-11-12T06:32:20.546Z,59.83
2022-11-12T06:34:50.583Z,60.19
2022-11-12T06:37:18.443Z,60.11
2022-11-12T06:39:46.355Z,60.05
2022-11-12T06:42:14.241Z,59.95
2022-11-12T06:44:42.088Z,60.16
2022-11-12T06:47:10.063Z,60.18
2022-11-12T06:49:38.016Z,59.94
2022-11-12T06:52:08.015Z,60.16
2022-11-12T06:54:37.853Z,60.22
2022-11-12T06:57:05.778Z,60.20
2022-11-12T06:59:33.711Z,60.33
2022-11-12T07:02:01.590Z,60.32
2022-11-12T07:04:29.576Z,60.19
2022-11-12T07:06:57.537Z,60.70
2022-11-12T07:09:26.872Z,60.64
2022-11-12T07:11:54.732Z,60.57
2022-11-12T07:14:22.610Z,60.42
2022-11-12T07:16:50.554Z,60.61
2022-11-12T07:19:18.443Z,60.64
2022-11-12T07:21:46.381Z,60.56
2022-11-12T07:24:14.274Z,60.82
2022-11-12T07:26:47.469Z,61.10
2022-11-12T07:29:30.084Z,60.85
2022-11-12T07:32:06.164Z,60.91
2022-11-12T07:34:34.384Z,61.02
2022-11-12T07:37:02.314Z,60.82
2022-11-12T07:39:30.271Z,60.91
2022-11-12T07:41:59.773Z,61.09
2022-11-12T07:44:27.631Z,60.85
2022-11-12T07:46:55.565Z,60.87
2022-11-12T07:49:23.462Z,61.02
2022-11-12T07:51:51.364Z,60.89
2022-11-12T07:54:19.562Z,61.19
2022-11-12T07:56:47.435Z,61.14
2022-11-12T07:59:16.680Z,61.25
2022-11-12T08:01:45.413Z,61.21
2022-11-12T08:04:14.119Z,61.05
2022-11-12T08:06:42.234Z,61.20
2022-11-12T08:09:10.613Z,61.31
2022-11-12T08:11:38.559Z,61.22
2022-11-12T08:14:06.537Z,61.32
2022-11-12T08:16:35.924Z,61.60
2022-11-12T08:19:03.795Z,61.54
2022-11-12T08:21:31.665Z,61.67
2022-11-12T08:23:59.616Z,61.36
2022-11-12T08:26:27.579Z,61.62
2022-11-12T08:28:55.562Z,61.42
2022-11-12T08:31:23.590Z,61.31
2022-11-12T08:33:52.903Z,61.58
2022-11-12T08:36:20.848Z,61.56
2022-11-12T08:38:48.795Z,61.35
2022-11-12T08:41:17.719Z,61.54
2022-11-12T08:43:45.627Z,61.60
2022-11-12T08:46:13.629Z,61.23
2022-11-12T08:48:41.579Z,61.32
2022-11-12T08:51:10.855Z,61.33
2022-11-12T08:53:38.770Z,61.54
2022-11-12T08:56:06.954Z,61.40
2022-11-12T08:58:34.863Z,61.33
2022-11-12T09:01:05.515Z,61.20
2022-11-12T09:03:33.414Z,61.22
2022-11-12T09:06:03.854Z,61.20
2022-11-12T09:08:34.181Z,61.38
2022-11-12T09:11:02.056Z,61.17
2022-11-12T09:13:30.065Z,61.25
2022-11-12T09:16:02.577Z,61.12
2022-11-12T09:18:35.153Z,60.82
2022-11-12T09:21:04.275Z,61.14
2022-11-12T09:23:34.768Z,60.86
2022-11-12T09:26:02.812Z,60.64
2022-11-12T09:28:30.817Z,60.73
2022-11-12T09:30:58.891Z,60.53
2022-11-12T09:33:28.314Z,60.82
2022-11-12T09:35:56.638Z,60.25
2022-11-12T09:38:24.907Z,60.57
2022-11-12T09:41:19.029Z,60.21
2022-11-12T09:43:49.863Z,60.10
2022-11-12T09:46:28.022Z,60.19
2022-11-12T09:49:01.655Z,60.08
2022-11-12T09:51:31.395Z,59.81
2022-11-12T09:53:59.798Z,60.05
2022-11-12T09:56:29.897Z,59.50
2022-11-12T09:58:57.869Z,59.53
2022-11-12T10:01:38.849Z,59.70
2022-11-12T10:04:17.192Z,59.29
2022-11-12T10:06:46.891Z,59.09
2022-11-12T10:09:17.606Z,58.89
2022-11-12T10:12:14.550Z,58.99
2022-11-12T10:14:50.178Z,58.75
2022-11-12T10:17:19.948Z,58.53
2022-11-12T10:20:01.246Z,58.44
2022-11-12T10:22:40.861Z,58.07
2022-11-12T10:25:15.699Z,57.95
2022-11-12T10:27:45.647Z,58.37
2022-11-12T10:30:20.014Z,58.35
2022-11-12T10:32:50.671Z,58.48
2022-11-12T10:35:19.693Z,59.35
2022-11-12T10:37:49.328Z,60.43
2022-11-12T10:40:29.686Z,59.94
2022-11-12T10:42:59.968Z,59.30
2022-11-12T10:45:27.873Z,59.12
2022-11-12T10:47:55.800Z,58.51
2022-11-12T10:50:24.045Z,56.92
2022-11-12T10:52:56.676Z,56.13
2022-11-12T10:55:25.217Z,55.75
2022-11-12T10:58:08.632Z,55.11
2022-11-12T11:00:36.576Z,54.83
2022-11-12T11:03:07.028Z,54.33
2022-11-12T11:05:35.883Z,54.85
2022-11-12T11:08:03.864Z,54.06
2022-11-12T11:10:32.500Z,53.56
2022-11-12T11:13:21.208Z,53.77
2022-11-12T11:16:00.026Z,53.48
2022-11-12T11:18:28.615Z,52.61
2022-11-12T11:21:02.736Z,52.20
2022-11-12T11:23:32.421Z,50.49
2022-11-12T11:26:19.647Z,49.72
2022-11-12T11:28:51.132Z,49.78
2022-11-12T11:31:22.144Z,50.83
2022-11-12T11:33:50.982Z,51.10
2022-11-12T11:36:23.213Z,51.76
2022-11-12T11:38:57.536Z,51.05
2022-11-12T11:41:33.063Z,50.83
2022-11-12T11:44:13.642Z,51.01
2022-11-12T11:46:48.190Z,49.80
2022-11-12T11:49:28.442Z,48.92
2022-11-12T11:51:58.317Z,49.45
2022-11-12T11:54:52.688Z,48.86
2022-11-12T11:57:22.669Z,48.75
2022-11-12T12:00:02.813Z,48.67
2022-11-12T12:02:40.400Z,48.44
2022-11-12T12:05:12.970Z,47.69
2022-11-12T12:07:44.370Z,47.94
2022-11-12T12:10:18.520Z,47.90
2022-11-12T12:12:52.727Z,48.16
2022-11-12T12:15:45.460Z,47.64
2022-11-12T12:18:18.354Z,49.35
2022-11-12T12:20:49.667Z,49.73
2022-11-12T12:23:23.112Z,49.40
2022-11-12T12:25:51.419Z,48.86
2022-11-12T12:28:27.058Z,48.22
2022-11-12T12:30:59.690Z,47.32
2022-11-12T12:33:30.243Z,46.83
2022-11-12T12:36:00.605Z,45.75
2022-11-12T12:38:30.678Z,45.02
2022-11-12T12:41:01.996Z,44.20
2022-11-12T12:43:33.292Z,44.67
2022-11-12T12:46:02.578Z,45.39
2022-11-12T12:48:31.411Z,46.03
2022-11-12T12:50:59.425Z,47.02
2022-11-12T12:53:34.600Z,47.67
2022-11-12T12:56:03.162Z,48.01
2022-11-12T12:58:31.749Z,48.74
2022-11-12T13:01:05.175Z,49.26
2022-11-12T13:03:53.325Z,49.58
2022-11-12T13:06:28.983Z,50.07
2022-11-12T13:08:59.126Z,50.42
2022-11-12T13:12:06.404Z,50.53
2022-11-12T13:15:05.627Z,50.49
2022-11-12T13:17:51.309Z,50.73
2022-11-12T13:20:40.646Z,50.74
2022-11-12T13:24:04.644Z,51.04
2022-11-12T13:26:52.555Z,51.46
2022-11-12T13:29:23.191Z,51.63
2022-11-12T13:31:51.155Z,51.54
2022-11-12T13:34:26.159Z,51.75
2022-11-12T13:36:57.443Z,51.86
2022-11-12T13:39:25.352Z,51.96
2022-11-12T13:42:15.519Z,52.12
2022-11-12T13:44:43.497Z,52.26
2022-11-12T13:47:13.891Z,52.30
2022-11-12T13:49:44.158Z,52.10
2022-11-12T13:52:13.223Z,52.39
2022-11-12T13:54:41.101Z,52.57
2022-11-12T13:57:28.873Z,53.17
2022-11-12T14:00:24.415Z,52.32
2022-11-12T14:02:54.827Z,51.63
2022-11-12T14:05:24.732Z,51.26
2022-11-12T14:08:10.795Z,51.60
2022-11-12T14:10:45.892Z,51.55
2022-11-12T14:13:40.947Z,51.69
2022-11-12T14:16:26.767Z,52.31
2022-11-12T14:19:06.514Z,55.07
2022-11-12T14:21:35.773Z,55.63
2022-11-12T14:24:03.888Z,54.37
2022-11-12T14:26:36.926Z,53.62
2022-11-12T14:29:04.799Z,52.62
2022-11-12T14:31:32.893Z,51.90
2022-11-12T14:34:21.834Z,51.50
2022-11-12T14:36:52.768Z,51.22
2022-11-12T14:39:20.648Z,49.81
2022-11-12T14:41:49.439Z,47.86
2022-11-12T14:44:19.251Z,47.10
2022-11-12T14:46:48.478Z,47.00
2022-11-12T14:49:19.413Z,47.22
2022-11-12T14:51:48.928Z,47.76
2022-11-12T14:54:22.476Z,47.88
2022-11-12T14:56:50.423Z,48.63
2022-11-12T14:59:18.316Z,48.67
2022-11-12T15:04:54.709Z,50.09
2022-11-12T15:07:26.972Z,50.27
2022-11-12T15:09:56.270Z,50.65
2022-11-12T15:12:25.249Z,50.97
2022-11-12T15:14:53.340Z,51.34
2022-11-12T15:17:28.452Z,51.55
2022-11-12T15:20:01.092Z,51.78
2022-11-12T15:22:29.080Z,52.21
2022-11-12T15:24:58.588Z,52.35
2022-11-12T15:27:35.810Z,52.26
2022-11-12T15:30:20.408Z,52.51
2022-11-12T15:32:48.352Z,52.49
2022-11-12T15:35:35.677Z,52.58
2022-11-12T15:38:04.698Z,52.83
2022-11-12T15:40:35.152Z,52.65
2022-11-12T15:43:03.062Z,52.87
2022-11-12T15:45:31.145Z,53.13
2022-11-12T15:47:58.995Z,53.00
2022-11-12T15:50:26.935Z,53.09
2022-11-12T15:52:55.392Z,53.40
2022-11-12T15:55:23.302Z,53.49
2022-11-12T15:57:53.268Z,53.39
2022-11-12T16:00:22.028Z,53.66
2022-11-12T16:02:53.108Z,53.80
2022-11-12T16:05:21.016Z,54.16
2022-11-12T16:07:48.914Z,54.47
2022-11-12T16:10:17.720Z,54.68
2022-11-12T16:12:46.099Z,55.16
2022-11-12T16:15:16.003Z,55.15
2022-11-12T16:17:43.868Z,54.90
2022-11-12T16:20:16.149Z,55.69
2022-11-12T16:22:44.187Z,55.55
2022-11-12T16:25:13.432Z,55.87
2022-11-12T16:27:41.343Z,56.09
2022-11-12T16:30:16.392Z,56.22
2022-11-12T16:32:44.406Z,56.19
2022-11-12T16:35:12.279Z,55.87
2022-11-12T16:37:40.427Z,56.22
2022-11-12T16:40:10.866Z,56.35
2022-11-12T16:42:45.455Z,56.45
2022-11-12T16:45:15.881Z,56.82
2022-11-12T16:47:45.263Z,56.65
2022-11-12T16:50:13.493Z,56.82
2022-11-12T16:52:41.472Z,56.93
2022-11-12T16:55:10.383Z,57.02
2022-11-12T16:57:38.734Z,57.32
2022-11-12T17:00:07.627Z,57.39
2022-11-12T17:02:40.719Z,57.47
2022-11-12T17:05:16.101Z,57.85
2022-11-12T17:07:44.120Z,57.69
2022-11-12T17:10:12.653Z,57.91
2022-11-12T17:12:40.591Z,57.90
2022-11-12T17:15:09.565Z,58.05
2022-11-12T17:17:38.827Z,58.30
2022-11-12T17:20:07.798Z,58.26
2022-11-12T17:22:35.743Z,58.14
2022-11-12T17:25:03.634Z,58.52
2022-11-12T17:27:31.588Z,58.28
2022-11-12T17:30:00.010Z,58.42
2022-11-12T17:32:27.994Z,58.74
2022-11-12T17:34:57.252Z,58.58
2022-11-12T17:37:25.346Z,59.00
2022-11-12T17:39:53.325Z,59.02
2022-11-12T17:42:21.247Z,59.13
2022-11-12T17:44:49.144Z,58.76
2022-11-12T17:47:17.056Z,58.80
2022-11-12T17:49:45.077Z,59.01
2022-11-12T17:52:14.461Z,59.11
2022-11-12T17:54:42.880Z,58.86
2022-11-12T17:57:10.902Z,59.22
2022-11-12T17:59:38.805Z,59.18
2022-11-12T18:02:06.663Z,59.25
2022-11-12T18:04:35.271Z,58.89
2022-11-12T18:07:03.197Z,59.35
2022-11-12T18:09:32.728Z,59.39
2022-11-12T18:12:01.167Z,59.33
2022-11-12T18:14:29.066Z,59.11
2022-11-12T18:16:59.180Z,59.09
2022-11-12T18:19:27.052Z,59.39
2022-11-12T18:21:56.968Z,59.91
2022-11-12T18:24:25.549Z,59.77
2022-11-12T18:26:54.793Z,59.81
2022-11-12T18:29:22.655Z,59.74
2022-11-12T18:31:50.570Z,59.95
2022-11-12T18:34:18.480Z,60.19
2022-11-12T18:36:46.347Z,59.81
2022-11-12T18:39:14.824Z,60.16
2022-11-12T18:41:42.703Z,59.83
2022-11-12T18:44:11.987Z,60.02
2022-11-12T18:46:39.875Z,60.15
2022-11-12T18:49:08.008Z,60.10
2022-11-12T18:51:36.306Z,60.21
2022-11-12T18:54:04.644Z,60.61
2022-11-12T18:56:32.557Z,60.70
2022-11-12T18:59:00.578Z,60.63
2022-11-12T19:01:30.012Z,60.77
2022-11-12T19:03:58.114Z,60.55
2022-11-12T19:06:26.070Z,60.83
2022-11-12T19:08:59.316Z,61.01
2022-11-12T19:11:27.279Z,61.02
2022-11-12T19:13:55.350Z,61.02
2022-11-12T19:16:23.950Z,60.83
2022-11-12T19:18:53.273Z,60.73
2022-11-12T19:21:22.107Z,61.07
2022-11-12T19:23:53.804Z,60.96
2022-11-12T19:26:22.671Z,61.51
2022-11-12T19:28:50.767Z,61.44
2022-11-12T19:31:19.467Z,61.59
2022-11-12T19:33:47.843Z,61.60
2022-11-12T19:36:18.130Z,61.42
2022-11-12T19:38:46.054Z,61.74
2022-11-12T19:41:19.355Z,61.77
2022-11-12T19:43:47.817Z,61.43
2022-11-12T19:46:15.772Z,61.50
2022-11-12T19:48:43.837Z,61.59
2022-11-12T19:51:12.078Z,61.58
2022-11-12T19:53:44.323Z,61.46
2022-11-12T19:56:14.121Z,61.94
2022-11-12T19:58:45.230Z,61.82
2022-11-12T20:01:14.436Z,62.13
2022-11-12T20:03:42.426Z,62.02
2022-11-12T20:06:11.958Z,61.86
2022-11-12T20:08:41.733Z,61.91
2022-11-12T20:11:10.022Z,61.88
2022-11-12T20:13:37.923Z,61.88
2022-11-12T20:16:09.077Z,61.83
2022-11-12T20:18:36.968Z,62.16
2022-11-12T20:21:05.624Z,62.11
2022-11-12T20:23:33.940Z,61.83
2022-11-12T20:26:06.564Z,62.09
2022-11-12T20:28:34.514Z,62.24
2022-11-12T20:31:03.718Z,62.12
2022-11-12T20:33:31.657Z,61.98
2022-11-12T20:36:04.798Z,62.00
2022-11-12T20:38:32.651Z,62.18
2022-11-12T20:41:02.675Z,62.02
2022-11-12T20:43:32.006Z,62.08
2022-11-12T20:45:59.954Z,62.14
2022-11-12T20:48:28.001Z,62.33
2022-11-12T20:51:22.782Z,62.57
2022-11-12T20:53:55.962Z,62.03
2022-11-12T20:56:27.860Z,62.30
2022-11-12T20:58:57.131Z,62.32
2022-11-12T21:01:25.426Z,62.24
2022-11-12T21:03:53.591Z,62.27
2022-11-12T21:06:22.793Z,62.19
2022-11-12T21:08:50.659Z,62.35
2022-11-12T21:11:19.678Z,62.64
2022-11-12T21:13:47.645Z,62.34
2022-11-12T21:16:17.059Z,62.37
2022-11-12T21:18:45.013Z,62.31
2022-11-12T21:21:14.419Z,62.45
2022-11-12T21:23:43.549Z,62.47
2022-11-12T21:26:13.546Z,62.20
2022-11-12T21:28:43.203Z,62.39
2022-11-12T21:31:11.974Z,62.63
2022-11-12T21:33:41.284Z,62.73
2022-11-12T21:36:15.879Z,62.43
2022-11-12T21:38:44.436Z,62.38
2022-11-12T21:41:13.576Z,62.83
2022-11-12T21:43:43.150Z,62.84
2022-11-12T21:46:11.581Z,62.86
2022-11-12T21:48:39.413Z,63.10
2022-11-12T21:51:09.467Z,62.91
2022-11-12T21:53:37.352Z,62.86
2022-11-12T21:56:05.511Z,63.13
2022-11-12T21:58:33.517Z,63.24
2022-11-12T22:01:08.916Z,62.87
2022-11-12T22:03:36.850Z,62.89
2022-11-12T22:06:04.927Z,62.85
2022-11-12T22:08:34.354Z,63.11
2022-11-12T22:11:03.580Z,63.13
2022-11-12T22:13:31.482Z,62.91
2022-11-12T22:15:59.466Z,63.32
2022-11-12T22:18:27.544Z,62.81
2022-11-12T22:20:59.170Z,62.96
2022-11-12T22:23:27.137Z,63.31
2022-11-12T22:25:58.800Z,63.17
2022-11-12T22:28:27.037Z,63.15
2022-11-12T22:30:55.137Z,63.24
2022-11-12T22:33:23.035Z,62.94
2022-11-12T22:35:50.981Z,63.00
2022-11-12T22:38:18.819Z,63.47
2022-11-12T22:40:46.709Z,63.22
2022-11-12T22:43:15.971Z,63.24
2022-11-12T22:45:43.844Z,63.23
2022-11-12T22:48:11.742Z,63.46
2022-11-12T22:50:39.679Z,63.39
2022-11-12T22:53:07.572Z,63.03
2022-11-12T22:55:35.576Z,63.11
2022-11-12T22:58:03.474Z,63.38
2022-11-12T23:00:33.179Z,63.55
2022-11-12T23:03:01.054Z,63.26
2022-11-12T23:05:29.012Z,63.47
2022-11-12T23:07:56.868Z,63.43
2022-11-12T23:10:24.714Z,63.16
2022-11-12T23:12:52.599Z,63.04
2022-11-12T23:15:20.453Z,63.12
2022-11-12T23:17:49.958Z,63.66
2022-11-12T23:20:18.023Z,63.57
2022-11-12T23:22:45.928Z,63.88
2022-11-12T23:25:13.815Z,63.66
2022-11-12T23:27:41.771Z,63.86
2022-11-12T23:30:10.551Z,63.73
2022-11-12T23:32:38.421Z,63.80
2022-11-12T23:35:08.430Z,63.89
2022-11-12T23:37:36.300Z,63.78
2022-11-12T23:40:04.172Z,63.43
2022-11-12T23:42:32.036Z,63.45
2022-11-12T23:44:59.907Z,63.61
2022-11-12T23:47:27.809Z,63.92
2022-11-12T23:49:55.767Z,63.73
2022-11-12T23:52:25.059Z,63.72
2022-11-12T23:54:52.913Z,64.16
2022-11-12T23:57:20.768Z,63.94
2022-11-12T23:59:48.737Z,64.08
